Time;durP1;ratioP1;P1;durP2;ratioP2;P2;SDS_P1;SDS_P2;PMS_P1;PMS_P2;Temp;Humidity;BMP_temperature;BMP_pressure;BME280_temperature;BME280_humidity;BME280_pressure;Samples;Min_cycle;Max_cycle;Signal;HPM_P1;HPM_P2
2022/01/01 00:00:17;;;;;;;15.40;6.55;;;;;;;13.35;88.97;102025.38;5076448;28;20032;-73
2022/01/01 00:02:50;;;;;;;22.45;7.95;;;;;;;13.37;88.79;102022.66;5075734;28;20104;-73
2022/01/01 00:05:27;;;;;;;24.00;8.85;;;;;;;13.41;89.16;102027.63;5089263;28;20040;-72
2022/01/01 00:07:57;;;;;;;22.92;7.80;;;;;;;13.37;89.26;102028.78;5064108;28;20092;-71
2022/01/01 00:10:28;;;;;;;15.52;6.65;;;;;;;13.34;89.76;102028.97;5083696;28;20067;-72
2022/01/01 00:12:54;;;;;;;17.55;6.45;;;;;;;13.36;88.93;102032.34;5070191;28;20059;-73
2022/01/01 00:15:28;;;;;;;12.10;6.20;;;;;;;13.38;89.25;102035.75;5058795;28;20047;-72
2022/01/01 00:18:03;;;;;;;14.95;5.82;;;;;;;13.40;88.88;102039.13;5053155;28;20063;-74
2022/01/01 00:20:35;;;;;;;23.45;6.35;;;;;;;13.35;90.14;102038.59;5065996;28;20045;-73
2022/01/01 00:23:17;;;;;;;19.33;6.78;;;;;;;13.40;88.86;102041.75;5077814;28;20040;-74
2022/01/01 00:25:52;;;;;;;15.23;5.70;;;;;;;13.39;89.00;102036.56;5071990;28;20040;-72
2022/01/01 00:28:27;;;;;;;20.52;6.50;;;;;;;13.35;89.42;102045.66;5071544;28;20048;-72
2022/01/01 00:30:54;;;;;;;19.38;6.47;;;;;;;13.31;89.51;102044.19;5055968;28;20044;-73
2022/01/01 00:33:21;;;;;;;20.60;7.15;;;;;;;13.33;90.23;102043.16;5053362;28;20043;-75
2022/01/01 00:35:50;;;;;;;19.23;6.97;;;;;;;13.30;90.72;102046.00;5065575;28;20582;-73
2022/01/01 00:38:19;;;;;;;15.25;6.63;;;;;;;13.31;90.99;102045.03;5072673;28;20051;-72
2022/01/01 00:40:50;;;;;;;17.05;7.53;;;;;;;13.31;91.22;102041.53;5067640;28;20067;-73
2022/01/01 00:43:17;;;;;;;17.88;7.10;;;;;;;13.32;91.24;102044.09;5066428;28;20122;-72
2022/01/01 00:45:48;;;;;;;12.25;6.18;;;;;;;13.37;90.17;102049.06;5072474;28;20039;-71
2022/01/01 00:48:17;;;;;;;18.48;7.28;;;;;;;13.31;90.96;102050.31;5068234;28;20052;-72
2022/01/01 00:50:57;;;;;;;20.95;7.07;;;;;;;13.29;91.39;102046.13;5050955;28;20406;-74
2022/01/01 00:53:26;;;;;;;11.27;6.47;;;;;;;13.31;91.32;102052.09;5061952;28;20051;-71
2022/01/01 00:56:11;;;;;;;24.08;8.70;;;;;;;13.31;91.49;102052.97;5064454;28;20657;-71
2022/01/01 00:58:42;;;;;;;15.57;6.82;;;;;;;13.25;90.96;102045.47;5063085;28;20512;-73
2022/01/01 01:01:09;;;;;;;28.23;7.30;;;;;;;13.32;91.40;102057.28;5047687;28;20047;-73
2022/01/01 01:03:36;;;;;;;18.48;6.25;;;;;;;13.28;91.91;102057.63;5062785;28;20060;-71
2022/01/01 01:06:03;;;;;;;26.92;7.03;;;;;;;13.31;91.46;102050.31;5065674;28;20047;-73
2022/01/01 01:08:37;;;;;;;15.23;6.30;;;;;;;13.30;91.29;102046.00;5072121;28;20329;-72
2022/01/01 01:11:07;;;;;;;23.52;6.38;;;;;;;13.24;91.59;102043.78;5068412;28;20135;-72
2022/01/01 01:13:35;;;;;;;17.58;5.72;;;;;;;13.26;92.12;102051.59;5069480;28;20060;-72
2022/01/01 01:16:02;;;;;;;16.73;5.90;;;;;;;13.28;91.94;102039.97;5061357;28;20048;-73
2022/01/01 01:18:29;;;;;;;15.93;5.60;;;;;;;13.26;91.98;102057.69;5062367;28;20116;-74
2022/01/01 01:21:04;;;;;;;16.83;6.28;;;;;;;13.26;91.55;102049.78;5044220;28;20047;-74
2022/01/01 01:23:31;;;;;;;16.73;5.55;;;;;;;13.24;91.47;102049.06;5062205;28;20048;-73
2022/01/01 01:26:01;;;;;;;18.48;5.28;;;;;;;13.23;91.78;102054.44;5062013;28;20036;-71
2022/01/01 01:28:27;;;;;;;14.60;5.22;;;;;;;13.24;91.15;102062.25;5063578;28;20032;-75
2022/01/01 01:30:57;;;;;;;11.55;5.63;;;;;;;13.27;91.58;102069.13;5063424;28;20423;-72
2022/01/01 01:33:27;;;;;;;23.58;6.07;;;;;;;13.24;91.65;102059.63;5063072;28;20048;-73
2022/01/01 01:36:12;;;;;;;14.52;5.82;;;;;;;13.28;91.39;102070.81;5059689;28;20047;-71
2022/01/01 01:38:43;;;;;;;15.83;5.00;;;;;;;13.23;90.97;102068.50;5061970;28;20040;-72
2022/01/01 01:41:11;;;;;;;20.55;6.60;;;;;;;13.29;91.51;102075.16;5068404;28;20133;-71
2022/01/01 01:43:57;;;;;;;9.75;4.95;;;;;;;13.28;91.25;102070.81;5068362;28;20181;-72
2022/01/01 01:46:26;;;;;;;18.85;5.50;;;;;;;13.30;91.51;102096.13;5066305;28;20089;-73
2022/01/01 01:48:53;;;;;;;16.98;5.90;;;;;;;13.26;90.95;102089.38;5067590;28;20509;-72
2022/01/01 01:51:28;;;;;;;17.67;5.72;;;;;;;13.31;90.75;102091.69;5047479;28;20050;-73
2022/01/01 01:53:55;;;;;;;11.52;5.78;;;;;;;13.28;91.32;102091.91;5067015;28;20082;-73
2022/01/01 01:56:29;;;;;;;16.75;6.03;;;;;;;13.23;91.20;102089.59;5068684;28;20048;-71
2022/01/01 01:58:55;;;;;;;28.00;6.15;;;;;;;13.20;91.32;102091.59;5070580;28;20051;-72
2022/01/01 02:01:24;;;;;;;17.15;5.32;;;;;;;13.21;91.16;102086.22;5071135;28;20048;-72
2022/01/01 02:03:58;;;;;;;17.30;5.25;;;;;;;13.24;90.68;102085.16;5076645;28;20056;-72
2022/01/01 02:06:28;;;;;;;21.55;5.68;;;;;;;13.22;91.40;102085.25;5088007;28;20051;-73
2022/01/01 02:08:58;;;;;;;15.65;5.85;;;;;;;13.20;91.45;102099.53;5085770;28;20024;-74
2022/01/01 02:11:29;;;;;;;14.10;5.45;;;;;;;13.19;91.00;102088.09;5064668;28;20079;-71
2022/01/01 02:14:15;;;;;;;18.05;5.53;;;;;;;13.22;91.34;102087.91;5039717;28;20120;-77
2022/01/01 02:17:11;;;;;;;21.27;6.10;;;;;;;13.24;90.71;102086.00;5062930;28;20043;-73
2022/01/01 02:19:49;;;;;;;13.50;5.13;;;;;;;13.25;91.08;102086.84;5049214;28;22197;-73
2022/01/01 02:22:24;;;;;;;15.25;4.75;;;;;;;13.21;90.97;102093.31;5077177;28;20096;-73
2022/01/01 02:24:51;;;;;;;13.90;5.05;;;;;;;13.24;90.30;102086.00;5068628;28;20117;-75
2022/01/01 02:27:18;;;;;;;30.92;5.03;;;;;;;13.26;89.71;102083.25;5070961;28;20052;-73
2022/01/01 02:29:45;;;;;;;9.75;5.07;;;;;;;13.27;89.77;102083.13;5057312;28;20048;-74
2022/01/01 02:32:16;;;;;;;17.67;5.40;;;;;;;13.35;88.88;102086.09;5054983;28;20048;-74
2022/01/01 02:34:44;;;;;;;25.58;5.57;;;;;;;13.34;90.08;102092.31;5057276;28;20134;-73
2022/01/01 02:37:11;;;;;;;14.85;4.35;;;;;;;13.29;89.51;102083.06;5050037;28;20045;-72
2022/01/01 02:39:39;;;;;;;21.38;5.10;;;;;;;13.24;90.20;102080.72;5043112;28;20590;-74
2022/01/01 02:42:10;;;;;;;21.52;5.25;;;;;;;13.22;89.98;102082.63;5054294;28;20621;-75
2022/01/01 02:44:36;;;;;;;7.70;3.95;;;;;;;13.31;89.29;102071.44;5057828;28;20048;-72
2022/01/01 02:47:03;;;;;;;15.20;4.90;;;;;;;13.24;89.78;102083.38;5057226;28;20036;-73
2022/01/01 02:49:30;;;;;;;9.23;4.55;;;;;;;13.25;90.00;102084.22;5058127;28;20121;-73
2022/01/01 02:51:56;;;;;;;21.88;4.50;;;;;;;13.16;89.58;102083.06;5055439;28;20124;-74
2022/01/01 02:54:23;;;;;;;11.82;5.00;;;;;;;13.13;90.37;102090.34;5058716;28;20130;-73
2022/01/01 02:56:51;;;;;;;14.13;5.07;;;;;;;13.12;90.00;102086.00;5061142;28;20052;-74
2022/01/01 02:59:18;;;;;;;13.38;4.40;;;;;;;13.19;90.12;102077.56;5053098;28;20219;-75
2022/01/01 03:01:44;;;;;;;20.17;4.57;;;;;;;13.17;89.62;102078.59;5067373;28;20039;-74
2022/01/01 03:04:13;;;;;;;11.23;4.50;;;;;;;13.15;90.00;102088.41;5068512;28;20059;-73
2022/01/01 03:06:40;;;;;;;13.02;4.47;;;;;;;13.11;90.49;102087.78;5065820;28;20048;-73
2022/01/01 03:09:07;;;;;;;9.52;4.05;;;;;;;13.13;90.20;102077.16;5068110;28;20058;-72
2022/01/01 03:11:34;;;;;;;13.18;4.07;;;;;;;13.11;90.32;102087.78;5065878;28;20063;-74
2022/01/01 03:14:03;;;;;;;9.35;4.07;;;;;;;13.14;90.55;102090.22;5063756;28;20181;-74
2022/01/01 03:16:31;;;;;;;12.57;4.88;;;;;;;13.13;89.73;102093.81;5075932;28;20048;-74
2022/01/01 03:18:58;;;;;;;16.63;4.90;;;;;;;13.14;89.23;102103.41;5067326;28;20635;-73
2022/01/01 03:21:25;;;;;;;19.00;4.90;;;;;;;13.13;89.30;102092.97;5066652;28;20051;-72
2022/01/01 03:23:51;;;;;;;18.58;5.22;;;;;;;13.08;89.80;102095.94;5042889;28;20121;-72
2022/01/01 03:26:18;;;;;;;13.73;4.78;;;;;;;13.12;89.08;102076.28;5057263;28;20107;-72
2022/01/01 03:28:45;;;;;;;10.30;4.40;;;;;;;13.06;90.38;102082.00;5058832;28;20127;-74
2022/01/01 03:31:13;;;;;;;20.40;5.03;;;;;;;13.02;90.18;102069.13;5058360;28;20132;-72
2022/01/01 03:33:39;;;;;;;13.02;4.75;;;;;;;13.07;90.19;102062.56;5059560;28;20061;-73
2022/01/01 03:36:09;;;;;;;12.60;4.70;;;;;;;13.02;90.45;102059.38;5059122;28;20137;-72
2022/01/01 03:38:36;;;;;;;11.35;3.97;;;;;;;12.98;90.38;102062.34;5057656;28;20047;-72
2022/01/01 03:41:02;;;;;;;9.93;3.63;;;;;;;13.06;89.68;102058.25;5062573;28;20044;-74
2022/01/01 03:43:29;;;;;;;18.55;5.15;;;;;;;13.07;89.86;102059.06;5059237;28;20048;-73
2022/01/01 03:45:56;;;;;;;11.52;3.33;;;;;;;13.11;90.38;102069.31;5060961;28;20186;-73
2022/01/01 03:48:24;;;;;;;14.02;3.97;;;;;;;13.09;90.21;102065.94;5036232;28;20139;-73
2022/01/01 03:50:51;;;;;;;10.93;4.00;;;;;;;13.12;90.14;102067.53;5060142;28;20039;-72
2022/01/01 03:53:18;;;;;;;7.18;3.75;;;;;;;13.14;89.55;102063.84;5057582;28;20046;-73
2022/01/01 03:55:47;;;;;;;8.05;3.88;;;;;;;13.16;89.22;102071.63;5059078;28;20043;-72
2022/01/01 03:58:14;;;;;;;12.20;4.40;;;;;;;13.12;89.83;102057.81;5042664;28;20424;-72
2022/01/01 04:00:41;;;;;;;10.57;4.15;;;;;;;13.08;90.30;102061.63;5061160;28;20769;-74
2022/01/01 04:03:08;;;;;;;11.13;3.05;;;;;;;13.06;89.59;102066.16;5063309;28;20056;-73
2022/01/01 04:05:37;;;;;;;12.82;3.70;;;;;;;13.06;89.36;102058.25;5059350;28;20048;-73
2022/01/01 04:08:07;;;;;;;14.52;3.65;;;;;;;13.15;89.52;102052.34;5063393;28;20158;-74
2022/01/01 04:10:34;;;;;;;7.25;3.33;;;;;;;13.13;89.56;102062.16;5056924;28;20729;-74
2022/01/01 04:13:02;;;;;;;8.38;3.30;;;;;;;13.14;89.68;102049.78;5062692;28;20043;-73
2022/01/01 04:15:29;;;;;;;8.73;3.63;;;;;;;13.13;88.84;102058.69;5057376;28;20121;-74
2022/01/01 04:17:58;;;;;;;11.02;3.72;;;;;;;13.12;88.85;102065.72;5045986;28;20055;-74
2022/01/01 04:20:26;;;;;;;8.02;2.85;;;;;;;13.18;88.61;102054.75;5058674;28;20109;-74
2022/01/01 04:22:57;;;;;;;16.95;3.90;;;;;;;13.12;90.00;102047.25;5058692;28;20055;-74
2022/01/01 04:25:24;;;;;;;10.50;3.65;;;;;;;13.08;89.03;102051.06;5042827;28;20059;-73
2022/01/01 04:27:52;;;;;;;22.58;3.60;;;;;;;12.96;90.07;102049.25;5044479;28;20188;-74
2022/01/01 04:30:20;;;;;;;9.20;3.22;;;;;;;12.92;90.43;102057.50;5064022;28;20078;-73
2022/01/01 04:32:46;;;;;;;17.88;3.78;;;;;;;12.91;90.60;102051.38;5059062;28;20051;-72
2022/01/01 04:35:15;;;;;;;10.98;3.65;;;;;;;12.91;91.10;102061.06;5063149;28;20044;-74
2022/01/01 04:37:42;;;;;;;7.80;3.20;;;;;;;12.90;90.49;102075.19;5057619;28;20044;-73
2022/01/01 04:40:12;;;;;;;6.95;2.95;;;;;;;12.92;90.45;102071.53;5061998;28;20045;-73
2022/01/01 04:42:39;;;;;;;9.88;3.35;;;;;;;12.91;90.24;102072.50;5061708;28;20044;-75
2022/01/01 04:45:06;;;;;;;6.97;3.25;;;;;;;12.92;90.98;102074.19;5062823;28;20048;-74
2022/01/01 04:47:33;;;;;;;30.80;4.57;;;;;;;12.88;90.58;102063.94;5061804;28;20097;-73
2022/01/01 04:50:02;;;;;;;14.45;5.13;;;;;;;12.82;90.41;102057.25;5059410;28;20051;-76
2022/01/01 04:52:29;;;;;;;14.13;4.50;;;;;;;12.80;89.90;102063.59;5060915;28;20082;-72
2022/01/01 04:54:56;;;;;;;14.77;3.83;;;;;;;12.78;91.48;102065.47;5060403;28;20544;-75
2022/01/01 04:57:29;;;;;;;10.10;3.75;;;;;;;12.76;90.63;102061.25;5066762;28;20048;-73
2022/01/01 04:59:57;;;;;;;19.20;4.05;;;;;;;12.73;90.95;102056.16;5070643;28;20052;-72
2022/01/01 05:02:24;;;;;;;11.27;3.65;;;;;;;12.68;91.40;102056.47;5034824;28;20052;-74
2022/01/01 05:04:51;;;;;;;15.05;4.50;;;;;;;12.65;91.28;102059.31;5060756;28;20079;-73
2022/01/01 05:07:18;;;;;;;12.70;4.43;;;;;;;12.66;91.04;102071.53;5059188;28;20160;-74
2022/01/01 05:09:44;;;;;;;17.55;4.10;;;;;;;12.66;90.83;102071.53;5057530;28;20048;-72
2022/01/01 05:12:11;;;;;;;19.25;4.15;;;;;;;12.69;91.18;102076.63;5063044;28;20479;-76
2022/01/01 05:14:39;;;;;;;14.65;4.20;;;;;;;12.70;90.33;102080.09;5063837;28;20048;-73
2022/01/01 05:17:09;;;;;;;14.38;3.95;;;;;;;12.70;90.82;102082.72;5058336;28;20079;-74
2022/01/01 05:19:35;;;;;;;12.73;3.72;;;;;;;12.67;90.86;102080.31;5059015;28;20055;-75
2022/01/01 05:22:02;;;;;;;10.15;3.63;;;;;;;12.68;90.52;102074.94;5057921;28;20052;-74
2022/01/01 05:24:32;;;;;;;12.98;4.22;;;;;;;12.77;90.17;102069.03;5059503;28;20052;-74
2022/01/01 05:26:59;;;;;;;11.85;3.30;;;;;;;12.74;90.23;102065.78;5059919;28;20126;-73
2022/01/01 05:29:25;;;;;;;8.95;3.50;;;;;;;12.77;90.10;102068.19;5061256;28;20144;-74
2022/01/01 05:31:53;;;;;;;12.77;4.20;;;;;;;12.76;90.07;102072.63;5060218;28;20621;-73
2022/01/01 05:34:20;;;;;;;7.22;3.28;;;;;;;12.82;90.33;102072.22;5061009;28;20182;-72
2022/01/01 05:36:47;;;;;;;14.55;3.40;;;;;;;12.81;89.74;102071.38;5057919;28;20044;-76
2022/01/01 05:39:14;;;;;;;14.32;4.50;;;;;;;12.80;89.83;102074.13;5039451;28;20066;-73
2022/01/01 05:41:40;;;;;;;12.15;3.70;;;;;;;12.77;89.70;102074.31;5054576;28;20048;-73
2022/01/01 05:44:07;;;;;;;10.10;3.20;;;;;;;12.78;89.67;102076.84;5057506;28;20032;-74
2022/01/01 05:46:33;;;;;;;12.00;3.00;;;;;;;12.81;89.10;102076.66;5061478;28;20127;-72
2022/01/01 05:49:05;;;;;;;9.27;3.63;;;;;;;12.84;89.84;102065.03;5059415;28;20130;-72
2022/01/01 05:51:32;;;;;;;12.52;3.75;;;;;;;12.76;89.96;102066.53;5055810;28;20050;-74
2022/01/01 05:53:58;;;;;;;8.65;3.03;;;;;;;12.81;89.46;102078.44;5059834;28;20071;-74
2022/01/01 05:56:25;;;;;;;10.88;4.10;;;;;;;12.83;88.79;102082.69;5057402;28;20058;-73
2022/01/01 05:58:52;;;;;;;8.90;2.90;;;;;;;12.88;88.64;102087.69;5057616;28;20059;-72
2022/01/01 06:01:18;;;;;;;12.50;3.67;;;;;;;12.86;88.76;102089.53;5056326;28;20068;-73
2022/01/01 06:03:45;;;;;;;11.65;3.15;;;;;;;12.89;88.84;102087.56;5061220;28;20148;-73
2022/01/01 06:06:12;;;;;;;10.70;3.50;;;;;;;12.86;89.43;102090.38;5054385;28;20054;-73
2022/01/01 06:08:39;;;;;;;10.70;3.22;;;;;;;12.89;88.53;102082.28;5059041;28;20072;-71
2022/01/01 06:11:05;;;;;;;6.22;2.60;;;;;;;12.94;88.58;102088.09;5039837;28;20753;-76
2022/01/01 06:13:35;;;;;;;9.32;2.65;;;;;;;12.92;88.17;102074.19;5057250;28;20088;-74
2022/01/01 06:16:01;;;;;;;10.68;2.63;;;;;;;12.92;87.82;102089.13;5062776;28;20054;-74
2022/01/01 06:18:28;;;;;;;12.13;2.85;;;;;;;12.89;87.70;102095.47;5056967;28;20067;-74
2022/01/01 06:20:54;;;;;;;13.68;2.67;;;;;;;12.88;87.67;102093.78;5057723;28;20044;-73
2022/01/01 06:23:22;;;;;;;12.18;2.90;;;;;;;12.89;88.45;102095.47;5057156;28;20036;-73
2022/01/01 06:25:49;;;;;;;6.80;2.63;;;;;;;12.89;88.25;102092.84;5045169;28;20032;-76
2022/01/01 06:28:15;;;;;;;9.90;2.97;;;;;;;12.89;88.38;102087.56;5057562;28;20552;-74
2022/01/01 06:30:42;;;;;;;8.45;3.05;;;;;;;12.90;88.47;102089.25;5057548;28;20407;-75
2022/01/01 06:33:12;;;;;;;11.43;3.10;;;;;;;12.92;87.62;102094.41;5038122;28;20129;-74
2022/01/01 06:35:40;;;;;;;8.20;2.88;;;;;;;12.90;87.22;102089.25;5056012;28;20047;-73
2022/01/01 06:38:06;;;;;;;8.23;3.08;;;;;;;12.92;87.51;102086.50;5048255;28;20109;-72
2022/01/01 06:40:35;;;;;;;13.98;2.95;;;;;;;12.93;87.97;102090.84;5058926;28;20043;-73
2022/01/01 06:43:01;;;;;;;5.57;2.25;;;;;;;12.93;86.99;102085.56;5062483;28;20176;-72
2022/01/01 06:45:28;;;;;;;6.30;2.13;;;;;;;12.89;87.43;102082.28;5061365;28;20051;-74
2022/01/01 06:47:55;;;;;;;11.55;2.67;;;;;;;12.86;87.42;102081.63;5060404;28;20157;-72
2022/01/01 06:50:22;;;;;;;6.43;2.28;;;;;;;12.87;87.69;102081.50;5040367;28;20112;-73
2022/01/01 06:52:51;;;;;;;6.68;2.28;;;;;;;12.98;86.83;102086.09;5060000;28;20046;-74
2022/01/01 06:55:18;;;;;;;10.07;2.28;;;;;;;12.88;87.22;102077.97;5061343;28;20071;-74
2022/01/01 06:57:46;;;;;;;9.00;2.10;;;;;;;12.90;86.94;102085.75;5059130;28;20068;-73
2022/01/01 07:00:14;;;;;;;12.88;2.65;;;;;;;12.88;86.46;102091.16;5059955;28;20036;-74
2022/01/01 07:02:41;;;;;;;4.05;1.80;;;;;;;12.89;87.26;102099.88;5074724;28;20502;-72
2022/01/01 07:05:09;;;;;;;11.15;2.53;;;;;;;12.90;87.16;102105.09;5073393;28;20051;-74
2022/01/01 07:07:36;;;;;;;9.02;2.05;;;;;;;12.88;86.86;102101.69;5069906;28;20524;-72
2022/01/01 07:10:03;;;;;;;10.73;2.10;;;;;;;12.89;86.58;102106.03;5069687;28;20071;-73
2022/01/01 07:12:30;;;;;;;7.00;2.28;;;;;;;12.92;86.35;102111.09;5071016;28;20123;-72
2022/01/01 07:14:58;;;;;;;6.32;1.73;;;;;;;12.94;87.05;102103.91;5072615;28;20044;-74
2022/01/01 07:17:25;;;;;;;5.55;1.80;;;;;;;12.97;86.38;102111.63;5051058;28;20044;-76
2022/01/01 07:19:51;;;;;;;5.78;2.25;;;;;;;12.93;86.49;102106.66;5068806;28;20082;-73
2022/01/01 07:22:18;;;;;;;3.40;1.42;;;;;;;12.93;86.14;102107.50;5067117;28;20067;-72
2022/01/01 07:24:45;;;;;;;10.85;1.77;;;;;;;12.79;86.81;102104.91;5070795;28;20040;-72
2022/01/01 07:27:12;;;;;;;6.45;2.28;;;;;;;12.82;86.56;102119.69;5069086;28;20044;-72
2022/01/01 07:29:39;;;;;;;9.32;2.15;;;;;;;12.75;87.28;102125.47;5051498;28;20423;-73
2022/01/01 07:32:07;;;;;;;5.00;2.00;;;;;;;12.71;87.12;102135.38;5076940;28;20126;-73
2022/01/01 07:34:34;;;;;;;7.07;1.90;;;;;;;12.73;86.89;102135.28;5067925;28;20048;-74
2022/01/01 07:37:02;;;;;;;10.68;2.08;;;;;;;12.65;87.42;102138.41;5082952;28;20075;-71
2022/01/01 07:39:29;;;;;;;8.45;2.03;;;;;;;12.52;88.17;102132.25;5060392;28;20052;-72
2022/01/01 07:41:56;;;;;;;4.05;1.75;;;;;;;12.45;87.66;102135.38;5075673;28;20028;-71
2022/01/01 07:44:23;;;;;;;6.18;1.90;;;;;;;12.33;88.18;102137.00;5076677;28;20041;-71
2022/01/01 07:46:50;;;;;;;6.07;2.67;;;;;;;12.22;88.61;102143.91;5053688;28;20145;-71
2022/01/01 07:49:18;;;;;;;9.27;2.00;;;;;;;12.06;89.25;102145.84;5071773;28;20056;-72
2022/01/01 07:51:45;;;;;;;6.85;2.42;;;;;;;12.00;90.38;102148.84;5074575;28;20498;-73
2022/01/01 07:54:12;;;;;;;3.72;1.90;;;;;;;12.03;89.97;102146.00;5059230;28;20766;-74
2022/01/01 07:56:40;;;;;;;6.65;2.40;;;;;;;12.11;90.08;102141.09;5048726;28;20560;-73
2022/01/01 07:59:06;;;;;;;6.78;2.17;;;;;;;12.19;89.09;102144.09;5075646;28;20044;-72
2022/01/01 08:01:33;;;;;;;5.22;2.58;;;;;;;12.37;87.92;102142.94;5075939;28;20105;-74
2022/01/01 08:04:02;;;;;;;7.68;2.17;;;;;;;12.54;87.33;102145.31;5073915;28;20052;-74
2022/01/01 08:06:30;;;;;;;8.75;2.42;;;;;;;12.60;87.46;102134.41;5072347;28;20050;-71
2022/01/01 08:08:57;;;;;;;7.75;2.88;;;;;;;12.58;87.42;102147.66;5074869;28;20082;-74
2022/01/01 08:11:24;;;;;;;12.23;3.00;;;;;;;12.54;87.01;102137.41;5056748;28;20082;-73
2022/01/01 08:13:50;;;;;;;38.15;2.42;;;;;;;12.50;87.96;102139.41;5073542;28;20483;-72
2022/01/01 08:16:17;;;;;;;5.78;2.35;;;;;;;12.55;87.67;102147.88;5074630;28;20115;-72
2022/01/01 08:18:44;;;;;;;5.25;1.70;;;;;;;12.65;87.89;102153.38;5044557;28;20047;-73
2022/01/01 08:21:11;;;;;;;10.23;3.13;;;;;;;12.67;86.86;102157.63;5067749;28;20052;-72
2022/01/01 08:23:38;;;;;;;5.45;2.45;;;;;;;12.69;86.72;102149.59;5075310;28;20050;-73
2022/01/01 08:26:05;;;;;;;3.53;1.83;;;;;;;12.70;86.31;102146.00;5072795;28;20071;-73
2022/01/01 08:28:32;;;;;;;9.43;2.50;;;;;;;12.68;86.89;102142.66;5076129;28;20136;-73
2022/01/01 08:30:58;;;;;;;9.82;2.60;;;;;;;12.75;87.07;102149.22;5066846;28;20044;-73
2022/01/01 08:33:25;;;;;;;6.57;2.28;;;;;;;12.77;86.50;102162.19;5072778;28;20036;-72
2022/01/01 08:35:51;;;;;;;8.00;2.60;;;;;;;12.80;86.81;102154.06;5064829;28;20119;-73
2022/01/01 08:38:18;;;;;;;4.80;2.63;;;;;;;12.82;86.83;102157.47;5077076;28;20048;-73
2022/01/01 08:40:46;;;;;;;7.60;2.50;;;;;;;12.86;86.30;102150.19;5071657;28;20052;-71
2022/01/01 08:43:13;;;;;;;9.98;2.30;;;;;;;12.83;86.63;102145.09;5076014;28;20039;-72
2022/01/01 08:45:40;;;;;;;8.25;3.10;;;;;;;12.80;86.37;102151.44;5046628;28;20070;-74
2022/01/01 08:48:07;;;;;;;5.47;2.75;;;;;;;13.09;85.44;102139.81;5072926;28;20862;-71
2022/01/01 08:50:34;;;;;;;9.45;3.00;;;;;;;13.33;84.10;102142.59;5072905;28;20071;-72
2022/01/01 08:53:01;;;;;;;5.28;2.53;;;;;;;13.20;84.48;102141.75;5072097;28;20032;-73
2022/01/01 08:55:29;;;;;;;9.35;3.13;;;;;;;13.13;85.77;102136.03;5074095;28;20580;-72
2022/01/01 08:57:57;;;;;;;6.47;3.08;;;;;;;13.11;85.87;102132.63;5055868;28;20044;-71
2022/01/01 09:00:23;;;;;;;9.40;3.22;;;;;;;13.12;85.53;102128.22;5075914;28;20071;-73
2022/01/01 09:02:50;;;;;;;7.65;2.70;;;;;;;13.19;85.52;102130.31;5074095;28;20139;-73
2022/01/01 09:05:17;;;;;;;9.13;3.40;;;;;;;13.28;85.09;102134.97;5061516;28;20036;-73
2022/01/01 09:07:43;;;;;;;6.70;3.17;;;;;;;13.38;84.60;102140.50;5071390;28;20036;-71
2022/01/01 09:10:11;;;;;;;8.20;3.10;;;;;;;13.45;84.57;102139.13;5075782;28;20032;-73
2022/01/01 09:12:37;;;;;;;11.25;3.45;;;;;;;13.45;84.39;102144.41;5067943;28;20039;-72
2022/01/01 09:15:09;;;;;;;5.68;2.90;;;;;;;13.48;84.93;102139.75;5078778;28;20051;-73
2022/01/01 09:17:36;;;;;;;12.07;3.03;;;;;;;13.42;84.81;102142.78;5081714;28;20044;-70
2022/01/01 09:20:03;;;;;;;6.50;3.25;;;;;;;13.41;84.36;102137.63;5073762;28;20059;-72
2022/01/01 09:22:30;;;;;;;9.48;3.17;;;;;;;13.42;83.51;102139.31;5071625;28;20940;-72
2022/01/01 09:24:58;;;;;;;4.97;2.60;;;;;;;13.50;84.10;102144.91;5072115;28;20043;-72
2022/01/01 09:27:25;;;;;;;7.07;2.67;;;;;;;13.55;84.32;102142.78;5075607;28;20048;-72
2022/01/01 09:29:51;;;;;;;7.15;3.03;;;;;;;13.57;83.29;102147.03;5067743;28;20036;-72
2022/01/01 09:32:20;;;;;;;7.95;3.10;;;;;;;13.79;82.95;102136.66;5075140;28;20040;-71
2022/01/01 09:34:49;;;;;;;7.22;3.30;;;;;;;13.77;82.63;102126.22;5073540;28;20036;-73
2022/01/01 09:37:16;;;;;;;8.77;3.10;;;;;;;13.76;82.84;102131.56;5072398;28;20126;-73
2022/01/01 09:39:43;;;;;;;9.80;3.33;;;;;;;13.74;82.94;102125.59;5073374;28;20045;-75
2022/01/01 09:42:11;;;;;;;9.20;3.28;;;;;;;13.71;83.00;102126.63;5072455;28;20040;-73
2022/01/01 09:44:39;;;;;;;6.20;3.00;;;;;;;13.73;82.98;102131.81;5077055;28;20044;-72
2022/01/01 09:47:06;;;;;;;4.43;2.13;;;;;;;13.77;82.76;102138.56;5068280;28;20044;-71
2022/01/01 09:49:34;;;;;;;9.10;2.90;;;;;;;13.75;82.17;102135.16;5058088;28;20052;-73
2022/01/01 09:52:00;;;;;;;6.03;2.70;;;;;;;13.80;81.32;102127.78;5073634;28;20036;-73
2022/01/01 09:54:30;;;;;;;8.00;3.00;;;;;;;13.84;82.23;102134.53;5063040;28;20510;-72
2022/01/01 09:56:57;;;;;;;8.20;2.50;;;;;;;13.88;81.21;102128.91;5049259;28;20109;-73
2022/01/01 09:59:25;;;;;;;8.68;2.80;;;;;;;13.84;81.64;102137.16;5073505;28;20056;-74
2022/01/01 10:01:52;;;;;;;6.30;2.67;;;;;;;13.91;82.25;102135.81;5048366;28;20048;-72
2022/01/01 10:04:18;;;;;;;9.13;3.00;;;;;;;13.92;81.68;102135.69;5071869;28;20048;-75
2022/01/01 10:07:01;;;;;;;5.30;2.30;;;;;;;13.99;81.47;102117.63;5062151;28;20055;-74
2022/01/01 10:09:31;;;;;;;7.15;3.13;;;;;;;13.93;81.08;102124.16;5074486;28;20125;-71
2022/01/01 10:11:58;;;;;;;6.35;2.47;;;;;;;13.99;80.05;102133.47;5081010;28;20123;-74
2022/01/01 10:14:34;;;;;;;5.18;2.55;;;;;;;14.00;80.72;102125.41;5083434;28;20219;-71
2022/01/01 10:17:08;;;;;;;8.07;2.80;;;;;;;13.97;81.33;102124.78;5074950;28;20314;-73
2022/01/01 10:19:35;;;;;;;3.97;2.03;;;;;;;14.00;80.68;102120.13;5039275;28;20036;-73
2022/01/01 10:22:06;;;;;;;7.50;2.10;;;;;;;14.01;80.51;102119.19;5068441;28;20048;-71
2022/01/01 10:27:42;;;;;;;5.13;2.03;;;;;;;13.99;81.15;102107.88;5071646;28;20040;-73
2022/01/01 10:27:45;;;;;;;8.30;2.42;;;;;;;13.87;80.93;102105.25;5073935;28;20568;-71
2022/01/01 10:30:20;;;;;;;14.40;2.80;;;;;;;13.82;81.65;102099.47;5070485;28;20047;-73
2022/01/01 10:33:00;;;;;;;4.68;2.30;;;;;;;13.89;81.13;102106.00;5075427;28;20045;-72
2022/01/01 10:35:28;;;;;;;7.20;2.15;;;;;;;13.83;81.49;102098.50;5069199;28;20076;-72
2022/01/01 10:37:57;;;;;;;11.32;2.72;;;;;;;13.99;81.62;102099.13;5076782;28;20044;-72
2022/01/01 10:40:27;;;;;;;7.15;2.38;;;;;;;14.22;80.53;102098.31;5069452;28;20093;-72
2022/01/01 10:42:54;;;;;;;15.40;3.03;;;;;;;14.07;79.53;102094.94;5075047;28;20052;-74
2022/01/01 10:45:31;;;;;;;8.02;2.40;;;;;;;14.14;80.31;102090.09;5067577;28;20032;-73
2022/01/01 10:48:17;;;;;;;9.35;2.25;;;;;;;14.25;79.47;102082.22;5076597;28;20040;-72
2022/01/01 10:50:47;;;;;;;7.50;2.58;;;;;;;14.34;79.27;102076.25;5065550;28;20036;-72
2022/01/01 10:53:17;;;;;;;7.95;2.05;;;;;;;14.42;79.37;102073.91;5070876;28;20079;-71
2022/01/01 10:55:45;;;;;;;7.47;2.63;;;;;;;14.34;79.67;102065.69;5068122;28;20036;-74
2022/01/01 10:58:17;;;;;;;7.28;1.75;;;;;;;14.49;79.38;102066.25;5056577;28;20036;-73
2022/01/01 11:00:44;;;;;;;6.30;2.25;;;;;;;14.54;78.60;102060.59;5068712;28;20059;-72
2022/01/01 11:03:16;;;;;;;7.63;2.45;;;;;;;14.57;77.91;102048.00;5072932;28;20396;-73
2022/01/01 11:05:44;;;;;;;5.40;2.60;;;;;;;14.58;78.05;102044.41;5068011;28;20047;-74
2022/01/01 11:08:15;;;;;;;3.75;1.58;;;;;;;14.56;78.06;102043.69;5070962;28;20060;-73
2022/01/01 11:10:43;;;;;;;7.32;2.15;;;;;;;14.73;78.25;102037.94;5055603;28;20059;-72
2022/01/01 11:13:12;;;;;;;6.38;2.25;;;;;;;14.83;78.63;102041.59;5053684;28;20597;-72
2022/01/01 11:15:39;;;;;;;8.88;2.00;;;;;;;14.93;77.02;102041.75;5070250;28;20040;-72
2022/01/01 11:18:06;;;;;;;4.15;1.92;;;;;;;14.97;77.03;102035.25;5071632;28;20045;-73
2022/01/01 11:20:34;;;;;;;3.65;2.00;;;;;;;15.09;76.97;102035.16;5071449;28;20055;-74
2022/01/01 11:23:06;;;;;;;6.35;2.00;;;;;;;15.13;76.94;102027.81;5070452;28;20448;-73
2022/01/01 11:25:36;;;;;;;5.03;2.22;;;;;;;15.04;76.87;102020.56;5068388;28;20040;-72
2022/01/01 11:28:07;;;;;;;6.65;2.08;;;;;;;14.91;77.04;102010.09;5050570;28;20052;-72